THY8LV CYYZ-LTFM
Flight info
| Callsign | THY8LV |
|---|---|
| Flight time | N/A |
| Altitude | 35000 |
| Route | VERDO7 IPTOS Q921 AGLUK DCT BAREE N793B JANJO/M084F350 DCT 56N050W 57N040W 57N030W 56N020W DCT RESNO DCT NETKI/N0485F350 DCT BOFUM Q37 MALUD UL975 WAL M16 DOLAS DCT NAVPI DCT OTMEC DCT TIVUN DCT ESAMA DCT OSBIT DCT TENLO DCT LAMSI DCT BARUG DCT SASAL DCT BABIT DCT KOTUS DCT ETIDA T390 RILEX |
| Aircraft | B77W/H-SDE1E2E3FGHIJ2J3J4J5M1RWXY/LB1D1 |
Departure
| Time | N/A |
|---|---|
| Airport | Toronto Pearson International Airport (CYYZ) |
Arrival
| Time | 2026-05-01 11:14 |
|---|---|
| Airport | İstanbul Airport (LTFM) |
| Time | Latitude | Longitude | Altitude | Speed | Heading |
|---|---|---|---|---|---|
| 2026-05-01 11:02 | 40.98773 | 28.06196 | 9993 ft | 307 kts | 91° |
| 2026-05-01 11:03 | 40.98779 | 28.09024 | 10003 ft | 308 kts | 91° |
| 2026-05-01 11:03 | 40.98788 | 28.11854 | 9977 ft | 307 kts | 91° |
| 2026-05-01 11:03 | 40.98802 | 28.14681 | 9656 ft | 308 kts | 91° |
| 2026-05-01 11:03 | 40.98817 | 28.17509 | 9350 ft | 305 kts | 91° |
| 2026-05-01 11:04 | 40.98831 | 28.20285 | 9148 ft | 298 kts | 91° |
| 2026-05-01 11:04 | 40.98846 | 28.23004 | 8955 ft | 291 kts | 91° |
| 2026-05-01 11:04 | 40.98887 | 28.30654 | 8343 ft | 275 kts | 91° |
| 2026-05-01 11:04 | 40.98928 | 28.40490 | 7541 ft | 263 kts | 91° |
| 2026-05-01 11:05 | 40.98941 | 28.51919 | 6704 ft | 256 kts | 91° |
| 2026-05-01 11:05 | 40.98937 | 28.54229 | 6532 ft | 253 kts | 91° |
| 2026-05-01 11:05 | 40.98935 | 28.56539 | 6340 ft | 249 kts | 91° |
| 2026-05-01 11:05 | 40.98934 | 28.58827 | 6152 ft | 248 kts | 91° |
| 2026-05-01 11:06 | 40.98935 | 28.61101 | 5980 ft | 246 kts | 91° |
| 2026-05-01 11:06 | 40.98933 | 28.63357 | 5817 ft | 246 kts | 91° |
| 2026-05-01 11:06 | 40.98931 | 28.65616 | 5642 ft | 244 kts | 91° |
| 2026-05-01 11:07 | 40.99004 | 28.70134 | 5284 ft | 246 kts | 77° |
| 2026-05-01 11:07 | 40.99775 | 28.72111 | 5133 ft | 241 kts | 43° |
| 2026-05-01 11:07 | 41.01168 | 28.73155 | 5097 ft | 226 kts | 10° |
| 2026-05-01 11:07 | 41.02196 | 28.73291 | 5051 ft | 223 kts | 359° |
| 2026-05-01 11:08 | 41.04260 | 28.73235 | 4752 ft | 222 kts | 357° |
| 2026-05-01 11:08 | 41.05736 | 28.73184 | 4487 ft | 204 kts | 358° |
| 2026-05-01 11:08 | 41.07975 | 28.73130 | 4006 ft | 179 kts | 359° |
| 2026-05-01 11:09 | 41.09157 | 28.73106 | 3780 ft | 164 kts | 0° |
| 2026-05-01 11:09 | 41.10274 | 28.73083 | 3579 ft | 159 kts | 1° |
| 2026-05-01 11:09 | 41.11398 | 28.73061 | 3378 ft | 164 kts | 2° |
| 2026-05-01 11:10 | 41.13655 | 28.73016 | 2927 ft | 157 kts | 4° |
| 2026-05-01 11:10 | 41.14737 | 28.72997 | 2708 ft | 153 kts | 5° |
| 2026-05-01 11:10 | 41.15801 | 28.72979 | 2518 ft | 154 kts | 5° |
| 2026-05-01 11:10 | 41.16879 | 28.72957 | 2277 ft | 155 kts | 5° |
| 2026-05-01 11:11 | 41.17945 | 28.72937 | 2091 ft | 153 kts | 4° |
| 2026-05-01 11:11 | 41.18965 | 28.72913 | 1864 ft | 138 kts | 5° |
| 2026-05-01 11:11 | 41.19860 | 28.72896 | 1703 ft | 128 kts | 5° |
| 2026-05-01 11:11 | 41.20780 | 28.72881 | 1526 ft | 135 kts | 4° |
| 2026-05-01 11:12 | 41.21722 | 28.72863 | 1346 ft | 133 kts | 4° |
| 2026-05-01 11:12 | 41.22638 | 28.72834 | 1115 ft | 134 kts | 2° |
| 2026-05-01 11:12 | 41.23550 | 28.72822 | 949 ft | 129 kts | 2° |
| 2026-05-01 11:12 | 41.24438 | 28.72804 | 726 ft | 126 kts | 4° |
| 2026-05-01 11:13 | 41.25300 | 28.72785 | 532 ft | 123 kts | 2° |
| 2026-05-01 11:13 | 41.26136 | 28.72765 | 381 ft | 119 kts | 5° |
| 2026-05-01 11:13 | 41.26923 | 28.72771 | 336 ft | 99 kts | 356° |
| 2026-05-01 11:13 | 41.27488 | 28.72751 | 334 ft | 64 kts | 358° |
| 2026-05-01 11:14 | 41.27836 | 28.72745 | 335 ft | 33 kts | 359° |
| 2026-05-01 11:14 | 41.28028 | 28.72809 | 336 ft | 15 kts | 29° |
| 2026-05-01 11:14 | 41.28091 | 28.72853 | 336 ft | 6 kts | 27° |
| 2026-05-01 11:14 | 41.28124 | 28.72882 | 333 ft | 6 kts | 40° |
| 2026-05-01 11:15 | 41.28136 | 28.72928 | 334 ft | 6 kts | 107° |
| 2026-05-01 11:15 | 41.28098 | 28.72954 | 338 ft | 7 kts | 167° |
| 2026-05-01 11:15 | 41.28049 | 28.72961 | 334 ft | 8 kts | 177° |
| 2026-05-01 11:15 | 41.27988 | 28.72963 | 335 ft | 10 kts | 179° |
| 2026-05-01 11:16 | 41.27914 | 28.72964 | 335 ft | 11 kts | 179° |
| 2026-05-01 11:16 | 41.27829 | 28.72965 | 335 ft | 13 kts | 179° |
| 2026-05-01 11:16 | 41.27732 | 28.72968 | 338 ft | 15 kts | 179° |
| 2026-05-01 11:16 | 41.27625 | 28.72971 | 335 ft | 16 kts | 179° |
| 2026-05-01 11:17 | 41.27512 | 28.72974 | 334 ft | 17 kts | 179° |
| 2026-05-01 11:17 | 41.27396 | 28.72976 | 338 ft | 17 kts | 179° |
| 2026-05-01 11:17 | 41.27281 | 28.72978 | 338 ft | 17 kts | 179° |
| 2026-05-01 11:17 | 41.27166 | 28.72980 | 335 ft | 17 kts | 179° |
| 2026-05-01 11:18 | 41.27052 | 28.72984 | 334 ft | 17 kts | 179° |
| 2026-05-01 11:18 | 41.26956 | 28.73037 | 335 ft | 17 kts | 103° |
| 2026-05-01 11:18 | 41.26955 | 28.73191 | 338 ft | 17 kts | 89° |
| 2026-05-01 11:18 | 41.26956 | 28.73345 | 335 ft | 17 kts | 89° |
| 2026-05-01 11:19 | 41.26958 | 28.73500 | 335 ft | 17 kts | 89° |
| 2026-05-01 11:19 | 41.26959 | 28.73654 | 337 ft | 17 kts | 88° |
| 2026-05-01 11:19 | 41.26962 | 28.73750 | 339 ft | 0 kts | 89° |
| 2026-05-01 11:19 | 41.26962 | 28.73751 | 339 ft | 0 kts | 89° |
| 2026-05-01 11:20 | 41.26962 | 28.73754 | 339 ft | 2 kts | 89° |
| 2026-05-01 11:20 | 41.26960 | 28.73818 | 339 ft | 9 kts | 103° |
| 2026-05-01 11:20 | 41.26909 | 28.73866 | 336 ft | 10 kts | 168° |
| 2026-05-01 11:21 | 41.26839 | 28.73873 | 336 ft | 10 kts | 177° |
| 2026-05-01 11:21 | 41.26766 | 28.73874 | 334 ft | 11 kts | 179° |
| 2026-05-01 11:21 | 41.26689 | 28.73875 | 335 ft | 11 kts | 181° |
| 2026-05-01 11:21 | 41.26650 | 28.73798 | 336 ft | 9 kts | 263° |
| 2026-05-01 11:22 | 41.26649 | 28.73760 | 338 ft | 0 kts | 268° |
| 2026-05-01 11:22 | 41.26649 | 28.73753 | 337 ft | 1 kts | 269° |
| 2026-05-01 11:22 | 41.26649 | 28.73741 | 338 ft | 0 kts | 270° |
| 2026-05-01 11:23 | 41.26648 | 28.73740 | 339 ft | 0 kts | 272° |